createdAt,value
2018-03-26T00:02:58.202Z,20.77
2018-03-26T00:08:49.024Z,30.75
2018-03-26T00:14:39.963Z,16.85
2018-03-26T00:20:30.824Z,14.03
2018-03-26T00:26:21.746Z,16.21
2018-03-26T00:32:12.631Z,12.87
2018-03-26T00:38:03.493Z,11.3
2018-03-26T00:43:54.387Z,10.4
2018-03-26T00:49:45.293Z,10.3
2018-03-26T00:55:36.205Z,8.99
2018-03-26T01:01:27.072Z,10.53
2018-03-26T01:07:17.954Z,11.31
2018-03-26T01:13:08.900Z,11.12
2018-03-26T01:18:59.809Z,10.38
2018-03-26T01:24:50.649Z,10.6
2018-03-26T01:30:41.564Z,11.5
2018-03-26T01:36:32.554Z,10.92
2018-03-26T01:42:23.337Z,10.25
2018-03-26T01:48:14.238Z,10.27
2018-03-26T01:54:05.168Z,10.99
2018-03-26T01:59:55.992Z,12.21
2018-03-26T02:05:46.904Z,12.77
2018-03-26T02:11:37.900Z,12.54
2018-03-26T02:17:28.735Z,12.32
2018-03-26T02:23:19.604Z,12.92
2018-03-26T02:29:10.515Z,12.06
2018-03-26T02:35:01.374Z,11.67
2018-03-26T02:40:52.275Z,12.66
2018-03-26T02:46:43.205Z,13.5
2018-03-26T02:52:34.070Z,13.86
2018-03-26T02:58:24.953Z,13.9
2018-03-26T03:04:15.853Z,14.49
2018-03-26T03:10:06.767Z,13.89
2018-03-26T03:15:57.609Z,13.74
2018-03-26T03:21:48.553Z,13.66
2018-03-26T03:27:39.468Z,13.18
2018-03-26T03:33:30.350Z,12.38
2018-03-26T03:39:21.235Z,12.73
2018-03-26T03:45:12.085Z,11.39
2018-03-26T03:51:02.992Z,12.42
2018-03-26T03:56:53.858Z,11.63
2018-03-26T04:02:44.745Z,11.51
2018-03-26T04:08:35.648Z,11.78
2018-03-26T04:14:26.570Z,12.89
2018-03-26T04:20:17.425Z,13.16
2018-03-26T04:26:08.321Z,12.81
2018-03-26T04:31:59.242Z,12.95
2018-03-26T04:37:50.136Z,13.48
2018-03-26T04:43:41.000Z,13.44
2018-03-26T04:49:31.908Z,13.4
2018-03-26T04:55:22.832Z,9.74
2018-03-26T05:01:13.738Z,11.16
2018-03-26T05:07:04.558Z,13.26
2018-03-26T05:12:55.440Z,12.28
2018-03-26T05:18:46.363Z,12.64
2018-03-26T05:24:37.232Z,13.79
2018-03-26T05:30:28.144Z,37.55
2018-03-26T05:36:19.024Z,42.14
2018-03-26T05:42:09.865Z,13.68
2018-03-26T05:48:00.753Z,14.97
2018-03-26T05:53:51.677Z,25.94
2018-03-26T05:59:42.568Z,14.95
2018-03-26T06:05:33.437Z,12.57
2018-03-26T06:11:24.343Z,14.68
2018-03-26T06:17:15.248Z,14.85
2018-03-26T06:23:06.115Z,13.93
2018-03-26T06:28:57.084Z,17.24
2018-03-26T06:34:47.864Z,17.58
2018-03-26T06:40:38.794Z,18.21
2018-03-26T06:46:29.683Z,23.45
2018-03-26T06:52:20.593Z,26.97
2018-03-26T06:58:11.412Z,32.18
2018-03-26T07:04:02.330Z,28.62
2018-03-26T07:09:53.193Z,26.92
2018-03-26T07:15:44.126Z,23.83
2018-03-26T07:21:34.994Z,23.22
2018-03-26T07:27:25.887Z,21.47
2018-03-26T07:33:16.806Z,21.06
2018-03-26T07:39:07.629Z,21.01
2018-03-26T07:44:58.557Z,21.69
2018-03-26T07:50:49.474Z,21.68
2018-03-26T07:56:40.325Z,9.9
2018-03-26T08:02:31.233Z,12.36
2018-03-26T08:08:22.114Z,11.52
2018-03-26T08:14:13.060Z,10.57
2018-03-26T08:20:03.924Z,10.93
2018-03-26T08:25:54.805Z,10.25
2018-03-26T08:31:45.680Z,10.79
2018-03-26T08:37:36.538Z,10.51
2018-03-26T08:43:27.428Z,9.98
2018-03-26T08:49:18.367Z,9.24
2018-03-26T08:55:09.293Z,8.67
2018-03-26T09:01:00.095Z,8.64
2018-03-26T09:06:50.982Z,7.68
2018-03-26T09:12:41.923Z,8.51
2018-03-26T09:18:32.772Z,8.77
2018-03-26T09:24:23.698Z,8.16
2018-03-26T09:30:14.570Z,7.58
2018-03-26T09:36:05.453Z,5.84
2018-03-26T09:41:56.326Z,5.74
2018-03-26T09:47:47.269Z,5.9
2018-03-26T09:53:38.129Z,6.61
2018-03-26T09:59:28.997Z,7.49
2018-03-26T10:05:19.944Z,6.5
2018-03-26T10:11:10.805Z,6.76
2018-03-26T10:17:01.763Z,7.27
2018-03-26T10:22:52.614Z,6.86
2018-03-26T10:28:43.480Z,7.71
2018-03-26T10:34:34.338Z,7.64
2018-03-26T10:40:25.271Z,6.37
2018-03-26T10:46:16.193Z,6.36
2018-03-26T10:52:07.023Z,7.34
2018-03-26T10:57:57.942Z,7
2018-03-26T11:03:48.830Z,7.11
2018-03-26T11:09:39.795Z,7.55
2018-03-26T11:15:30.596Z,6.98
2018-03-26T11:21:21.519Z,7.82
2018-03-26T11:27:12.416Z,8.3
2018-03-26T11:33:03.316Z,8.47
2018-03-26T11:38:54.190Z,8.02
2018-03-26T11:44:45.104Z,8.06
2018-03-26T11:50:35.975Z,9.83
2018-03-26T11:56:26.851Z,8.21
2018-03-26T12:02:17.748Z,8.76
2018-03-26T12:08:08.648Z,7.6
2018-03-26T12:13:59.557Z,7.43
2018-03-26T12:19:50.533Z,7.97
2018-03-26T12:25:41.368Z,6.68
2018-03-26T12:31:32.234Z,6.75
2018-03-26T12:37:23.142Z,6.47
2018-03-26T12:43:14.089Z,6.11
2018-03-26T12:49:04.940Z,7.49
2018-03-26T12:54:55.804Z,7.41
2018-03-26T13:00:46.799Z,6.26
2018-03-26T13:06:37.681Z,5.88
2018-03-26T13:12:28.587Z,6.4
2018-03-26T13:18:19.491Z,7.27
2018-03-26T13:24:10.348Z,6.3
2018-03-26T13:30:01.237Z,5.89
2018-03-26T13:35:52.152Z,6.45
2018-03-26T13:41:43.018Z,6.37
2018-03-26T13:47:33.902Z,6.55
2018-03-26T13:53:24.803Z,6.97
2018-03-26T13:59:15.733Z,5.09
2018-03-26T14:05:06.599Z,6.81
2018-03-26T14:10:57.479Z,5.27
2018-03-26T14:16:48.395Z,5.9
2018-03-26T14:22:39.293Z,6.07
2018-03-26T14:28:30.264Z,6.37
2018-03-26T14:34:21.126Z,7.14
2018-03-26T14:40:12.090Z,6.96
2018-03-26T14:46:02.935Z,5.85
2018-03-26T14:51:53.804Z,7.4
2018-03-26T14:57:44.704Z,6.78
2018-03-26T15:03:35.580Z,6.74
2018-03-26T15:09:26.555Z,6.21
2018-03-26T15:15:17.404Z,7.18
2018-03-26T15:21:08.326Z,6.8
2018-03-26T15:26:59.200Z,6.2
2018-03-26T15:32:50.130Z,6.5
2018-03-26T15:38:40.984Z,7.44
2018-03-26T15:44:31.892Z,7.8
2018-03-26T15:50:22.812Z,7.24
2018-03-26T15:56:13.710Z,7.22
2018-03-26T16:02:04.590Z,6.79
2018-03-26T16:07:55.497Z,7.17
2018-03-26T16:13:46.430Z,7.29
2018-03-26T16:19:37.309Z,7.26
2018-03-26T16:25:28.209Z,7.12
2018-03-26T16:31:19.100Z,7.06
2018-03-26T16:37:10.051Z,7.71
2018-03-26T16:43:00.967Z,6.65
2018-03-26T16:48:51.816Z,8.13
2018-03-26T16:54:42.718Z,9.08
2018-03-26T17:00:33.611Z,7.77
2018-03-26T17:06:24.516Z,15.58
2018-03-26T17:12:15.428Z,13.48
2018-03-26T17:18:06.308Z,11.55
2018-03-26T17:23:57.171Z,8.52
2018-03-26T17:29:48.148Z,8.2
2018-03-26T17:35:39.033Z,8.5
2018-03-26T17:41:29.971Z,11.58
2018-03-26T17:47:20.810Z,18.15
2018-03-26T17:53:11.755Z,9.23
2018-03-26T17:59:02.603Z,9.27
2018-03-26T18:04:53.619Z,10.57
2018-03-26T18:10:44.410Z,11.02
2018-03-26T18:16:35.295Z,10.29
2018-03-26T18:22:26.220Z,14.68
2018-03-26T18:28:17.119Z,10.45
2018-03-26T18:34:08.014Z,9.55
2018-03-26T18:39:58.891Z,9.4
2018-03-26T18:45:49.838Z,9.56
2018-03-26T18:51:40.713Z,9.37
2018-03-26T18:57:31.614Z,11.06
2018-03-26T19:03:22.579Z,9.86
2018-03-26T19:09:13.427Z,9.01
2018-03-26T19:15:04.332Z,9.66
2018-03-26T19:20:55.216Z,9.83
2018-03-26T19:26:46.130Z,9.56
2018-03-26T19:32:37.013Z,10.43
2018-03-26T19:38:27.940Z,11.52
2018-03-26T19:44:18.826Z,12.57
2018-03-26T19:50:09.698Z,11.41
2018-03-26T19:56:00.602Z,14.07
2018-03-26T20:01:51.523Z,9.41
2018-03-26T20:07:42.404Z,11.73
2018-03-26T20:13:33.322Z,14.64
2018-03-26T20:19:24.199Z,15.11
2018-03-26T20:25:15.109Z,15.29
2018-03-26T20:31:06.043Z,43.14
2018-03-26T20:36:56.911Z,34.32
2018-03-26T20:42:47.797Z,17.75
2018-03-26T20:48:38.701Z,13.92
2018-03-26T20:54:29.594Z,10.95
2018-03-26T21:00:20.480Z,11.81
2018-03-26T21:06:11.394Z,13.25
2018-03-26T21:12:02.329Z,17.61
2018-03-26T21:17:53.182Z,18.76
2018-03-26T21:23:44.069Z,17.94
2018-03-26T21:29:35.021Z,17.54
2018-03-26T21:35:25.871Z,25.48
2018-03-26T21:41:16.799Z,58.89
2018-03-26T21:47:07.690Z,47.8
2018-03-26T21:52:58.584Z,58.91
2018-03-26T21:58:49.498Z,10.51
2018-03-26T22:04:40.372Z,10.49
2018-03-26T22:10:31.309Z,11.21
2018-03-26T22:16:22.182Z,13.27
2018-03-26T22:22:13.078Z,8.82
2018-03-26T22:28:03.975Z,12.26
2018-03-26T22:33:54.856Z,12.03
2018-03-26T22:39:45.807Z,14.27
2018-03-26T22:45:36.674Z,9.76
2018-03-26T22:51:27.599Z,10.68
2018-03-26T22:57:18.486Z,11.54
2018-03-26T23:03:09.366Z,10.71
2018-03-26T23:09:00.271Z,12.68
2018-03-26T23:14:51.159Z,12.23
2018-03-26T23:20:42.031Z,13.68
2018-03-26T23:26:32.946Z,12.56
2018-03-26T23:32:23.861Z,13.93
2018-03-26T23:38:14.771Z,14.26
2018-03-26T23:44:05.627Z,14.63
2018-03-26T23:49:56.562Z,12.83
2018-03-26T23:55:47.402Z,15.82
